createdAt,value
2019-05-17T00:01:07.086Z,99.90
2019-05-17T00:03:32.483Z,99.90
2019-05-17T00:05:58.655Z,99.90
2019-05-17T00:08:34.401Z,99.90
2019-05-17T00:10:52.829Z,99.90
2019-05-17T00:13:19.004Z,99.90
2019-05-17T00:15:47.258Z,99.90
2019-05-17T00:18:13.175Z,99.90
2019-05-17T00:20:39.347Z,99.90
2019-05-17T00:23:07.077Z,99.90
2019-05-17T00:25:33.578Z,99.90
2019-05-17T00:27:59.761Z,99.90
2019-05-17T00:30:26.511Z,99.90
2019-05-17T00:32:53.032Z,99.90
2019-05-17T00:35:19.211Z,99.90
2019-05-17T00:37:46.481Z,99.90
2019-05-17T00:40:13.023Z,99.90
2019-05-17T00:42:39.206Z,99.90
2019-05-17T00:45:06.774Z,99.90
2019-05-17T00:47:33.126Z,99.90
2019-05-17T00:49:59.307Z,99.90
2019-05-17T00:52:27.207Z,99.90
2019-05-17T00:54:56.238Z,99.90
2019-05-17T00:57:22.172Z,99.90
2019-05-17T00:59:48.378Z,99.90
2019-05-17T01:02:16.358Z,99.90
2019-05-17T01:04:42.936Z,99.90
2019-05-17T01:07:09.132Z,99.90
2019-05-17T01:09:36.666Z,99.90
2019-05-17T01:12:02.983Z,99.90
2019-05-17T01:14:29.193Z,99.90
2019-05-17T01:16:56.508Z,99.90
2019-05-17T01:19:22.846Z,99.90
2019-05-17T01:21:49.048Z,99.90
2019-05-17T01:24:17.273Z,99.90
2019-05-17T01:26:43.502Z,99.90
2019-05-17T01:29:09.699Z,99.90
2019-05-17T01:31:37.317Z,99.90
2019-05-17T01:34:03.747Z,99.90
2019-05-17T01:36:30.358Z,99.90
2019-05-17T01:38:57.586Z,99.90
2019-05-17T01:41:23.990Z,99.90
2019-05-17T01:43:50.278Z,99.90
2019-05-17T01:46:17.160Z,99.90
2019-05-17T01:48:43.529Z,99.90
2019-05-17T01:51:09.730Z,99.90
2019-05-17T01:53:36.431Z,99.90
2019-05-17T01:56:03.362Z,99.90
2019-05-17T01:58:29.569Z,99.90
2019-05-17T02:00:57.330Z,99.90
2019-05-17T02:03:23.815Z,99.90
2019-05-17T02:05:50.013Z,99.90
2019-05-17T02:08:17.061Z,99.90
2019-05-17T02:10:43.663Z,99.90
2019-05-17T02:13:09.864Z,99.90
2019-05-17T02:15:37.828Z,99.90
2019-05-17T02:18:06.775Z,99.90
2019-05-17T02:20:32.438Z,99.90
2019-05-17T02:22:58.710Z,99.90
2019-05-17T02:25:27.098Z,99.90
2019-05-17T02:27:52.884Z,99.90
2019-05-17T02:30:22.987Z,99.90
2019-05-17T02:32:47.046Z,99.90
2019-05-17T02:35:14.779Z,99.90
2019-05-17T02:37:43.431Z,99.90
2019-05-17T02:40:09.715Z,99.90
2019-05-17T02:42:36.219Z,99.90
2019-05-17T02:45:03.627Z,99.90
2019-05-17T02:47:33.324Z,99.90
2019-05-17T02:49:58.074Z,99.90
2019-05-17T02:52:24.250Z,99.90
2019-05-17T02:54:52.617Z,99.90
2019-05-17T02:57:19.315Z,99.90
2019-05-17T02:59:45.469Z,99.90
2019-05-17T03:02:12.570Z,99.90
2019-05-17T03:04:43.028Z,99.90
2019-05-17T03:07:07.638Z,99.90
2019-05-17T03:09:34.017Z,99.90
2019-05-17T03:12:03.270Z,99.90
2019-05-17T03:14:28.296Z,99.90
2019-05-17T03:16:54.475Z,99.90
2019-05-17T03:19:23.532Z,99.90
2019-05-17T03:21:48.772Z,99.90
2019-05-17T03:24:14.958Z,99.90
2019-05-17T03:26:43.027Z,99.90
2019-05-17T03:29:09.197Z,99.90
2019-05-17T03:31:42.672Z,99.90
2019-05-17T03:34:06.592Z,99.90
2019-05-17T03:36:36.141Z,99.90
2019-05-17T03:39:02.877Z,99.90
2019-05-17T03:41:29.117Z,99.90
2019-05-17T03:43:55.513Z,99.90
2019-05-17T03:46:23.222Z,99.90
2019-05-17T03:48:53.219Z,99.90
2019-05-17T03:51:18.880Z,99.90
2019-05-17T03:53:45.554Z,99.90
2019-05-17T03:56:13.381Z,99.90
2019-05-17T03:58:43.356Z,99.90
2019-05-17T04:01:09.590Z,99.90
2019-05-17T04:03:36.100Z,99.90
2019-05-17T04:06:03.825Z,99.90
2019-05-17T04:08:33.232Z,99.90
2019-05-17T04:11:14.969Z,99.90
2019-05-17T04:13:26.542Z,99.90
2019-05-17T04:15:53.258Z,99.90
2019-05-17T04:18:19.521Z,99.90
2019-05-17T04:20:45.692Z,99.90
2019-05-17T04:23:12.747Z,99.90
2019-05-17T04:25:39.471Z,99.90
2019-05-17T04:28:05.646Z,99.90
2019-05-17T04:30:32.751Z,99.90
2019-05-17T04:32:59.427Z,99.90
2019-05-17T04:35:25.721Z,99.90
2019-05-17T04:37:53.187Z,99.90
2019-05-17T04:40:22.876Z,99.90
2019-05-17T04:42:47.888Z,99.90
2019-05-17T04:45:14.063Z,99.90
2019-05-17T04:47:43.721Z,99.90
2019-05-17T04:50:08.560Z,99.90
2019-05-17T04:52:34.938Z,99.90
2019-05-17T04:55:04.172Z,99.90
2019-05-17T04:57:32.350Z,99.90
2019-05-17T04:59:57.745Z,99.90
2019-05-17T05:02:23.937Z,99.90
2019-05-17T05:04:53.168Z,99.90
2019-05-17T05:07:18.084Z,99.90
2019-05-17T05:09:44.273Z,99.90
2019-05-17T05:12:12.460Z,99.90
2019-05-17T05:14:38.459Z,99.90
2019-05-17T05:17:04.627Z,99.90
2019-05-17T05:19:32.952Z,99.90
2019-05-17T05:21:58.767Z,99.90
2019-05-17T05:24:24.960Z,99.90
2019-05-17T05:26:51.803Z,99.90
2019-05-17T05:29:18.011Z,99.90
2019-05-17T05:31:44.307Z,99.90
2019-05-17T05:34:12.337Z,99.90
2019-05-17T05:36:38.586Z,99.90
2019-05-17T05:39:06.269Z,99.90
2019-05-17T05:41:32.451Z,99.90
2019-05-17T05:43:58.625Z,99.90
2019-05-17T05:46:24.822Z,99.90
2019-05-17T05:48:52.228Z,99.90
2019-05-17T05:51:18.583Z,99.90
2019-05-17T05:53:44.783Z,99.90
2019-05-17T05:56:13.299Z,99.90
2019-05-17T05:58:38.934Z,99.90
2019-05-17T06:01:06.479Z,99.90
2019-05-17T06:03:32.659Z,99.90
2019-05-17T06:05:58.842Z,99.90
2019-05-17T06:08:25.096Z,99.90
2019-05-17T06:10:53.184Z,99.90
2019-05-17T06:13:19.193Z,99.90
2019-05-17T06:15:45.397Z,99.90
2019-05-17T06:18:12.161Z,99.90
2019-05-17T06:20:38.747Z,99.90
2019-05-17T06:23:04.955Z,99.90
2019-05-17T06:25:34.095Z,99.90
2019-05-17T06:28:01.425Z,99.90
2019-05-17T06:30:27.410Z,99.90
2019-05-17T06:32:53.574Z,99.90
2019-05-17T06:35:21.786Z,99.90
2019-05-17T06:37:47.767Z,99.90
2019-05-17T06:40:14.039Z,99.90
2019-05-17T06:42:42.454Z,99.90
2019-05-17T06:45:08.532Z,99.90
2019-05-17T06:47:34.902Z,99.90
2019-05-17T06:50:03.128Z,99.90
2019-05-17T06:52:29.200Z,99.90
2019-05-17T06:54:55.379Z,99.90
2019-05-17T06:57:23.348Z,99.90
2019-05-17T06:59:49.929Z,99.90
2019-05-17T07:02:19.651Z,99.90
2019-05-17T07:04:45.747Z,99.90
2019-05-17T07:07:13.884Z,99.90
2019-05-17T07:09:40.180Z,99.90
2019-05-17T07:12:06.436Z,99.90
2019-05-17T07:14:32.742Z,99.90
2019-05-17T07:16:59.587Z,99.90
2019-05-17T07:19:25.889Z,99.90
2019-05-17T07:21:52.209Z,99.90
2019-05-17T07:24:19.760Z,99.90
2019-05-17T07:26:45.934Z,99.90
2019-05-17T07:29:12.347Z,99.90
2019-05-17T07:31:40.464Z,99.90
2019-05-17T07:34:06.510Z,99.90
2019-05-17T07:36:32.712Z,99.90
2019-05-17T07:39:00.752Z,99.90
2019-05-17T07:41:27.059Z,99.90
2019-05-17T07:43:53.558Z,99.90
2019-05-17T07:46:20.622Z,99.90
2019-05-17T07:48:47.015Z,99.90
2019-05-17T07:51:13.214Z,99.90
2019-05-17T07:53:40.056Z,99.90
2019-05-17T07:56:06.469Z,99.90
2019-05-17T07:58:32.670Z,99.90
2019-05-17T08:01:01.484Z,99.90
2019-05-17T08:03:29.728Z,99.90
2019-05-17T08:05:55.597Z,99.90
2019-05-17T08:08:21.773Z,99.90
2019-05-17T08:10:50.745Z,99.80
2019-05-17T08:13:27.332Z,99.90
2019-05-17T08:15:44.098Z,99.90
2019-05-17T08:18:11.044Z,99.90
2019-05-17T08:20:39.827Z,99.90
2019-05-17T08:23:05.654Z,99.80
2019-05-17T08:25:31.837Z,99.90
2019-05-17T08:27:59.516Z,99.90
2019-05-17T08:30:26.071Z,99.90
2019-05-17T08:32:52.506Z,99.90
2019-05-17T08:35:19.822Z,99.90
2019-05-17T08:37:46.292Z,99.90
2019-05-17T08:40:15.236Z,99.80
2019-05-17T08:42:40.893Z,99.90
2019-05-17T08:45:09.525Z,99.90
2019-05-17T08:47:35.505Z,99.50
2019-05-17T08:50:04.679Z,98.80
2019-05-17T08:52:30.813Z,98.80
2019-05-17T08:54:56.957Z,99.00
2019-05-17T08:57:23.135Z,99.30
2019-05-17T08:59:49.731Z,99.30
2019-05-17T09:02:16.732Z,98.80
2019-05-17T09:04:44.692Z,98.60
2019-05-17T09:07:10.840Z,98.40
2019-05-17T09:09:39.330Z,98.40
2019-05-17T09:12:05.272Z,98.20
2019-05-17T09:14:31.454Z,98.20
2019-05-17T09:17:00.222Z,98.20
2019-05-17T09:19:25.874Z,98.30
2019-05-17T09:21:52.055Z,98.90
2019-05-17T09:24:19.481Z,99.20
2019-05-17T09:26:45.934Z,98.90
2019-05-17T09:29:12.110Z,98.30
2019-05-17T09:31:40.252Z,98.30
2019-05-17T09:34:06.279Z,98.80
2019-05-17T09:36:32.555Z,98.70
2019-05-17T09:39:00.119Z,98.80
2019-05-17T09:41:26.543Z,99.70
2019-05-17T09:43:52.772Z,99.70
2019-05-17T09:46:19.704Z,99.60
2019-05-17T09:48:47.064Z,99.30
2019-05-17T09:51:13.420Z,99.70
2019-05-17T09:53:40.092Z,99.80
2019-05-17T09:56:06.636Z,99.80
2019-05-17T09:58:32.816Z,99.00
2019-05-17T10:01:01.447Z,98.90
2019-05-17T10:03:27.366Z,98.80
2019-05-17T10:05:54.051Z,98.70
2019-05-17T10:08:20.436Z,98.60
2019-05-17T10:11:01.009Z,98.30
2019-05-17T10:13:15.226Z,97.70
2019-05-17T10:15:41.718Z,97.20
2019-05-17T10:18:10.761Z,97.00
2019-05-17T10:20:36.862Z,97.10
2019-05-17T10:23:03.053Z,97.00
2019-05-17T10:25:29.523Z,96.70
2019-05-17T10:27:56.117Z,96.50
2019-05-17T10:30:22.612Z,96.80
2019-05-17T10:32:50.497Z,97.30
2019-05-17T10:35:17.001Z,97.80
2019-05-17T10:37:43.176Z,97.30
2019-05-17T10:40:10.361Z,97.00
2019-05-17T10:42:39.350Z,97.50
2019-05-17T10:45:05.402Z,97.30
2019-05-17T10:47:31.625Z,97.40
2019-05-17T10:49:57.807Z,97.70
2019-05-17T10:52:23.987Z,97.30
2019-05-17T10:54:50.207Z,96.90
2019-05-17T10:57:16.370Z,96.80
2019-05-17T10:59:42.546Z,96.30
2019-05-17T11:02:09.973Z,95.70
2019-05-17T11:04:36.632Z,96.50
2019-05-17T11:07:04.296Z,96.60
2019-05-17T11:09:31.346Z,95.90
2019-05-17T11:11:57.944Z,96.00
2019-05-17T11:14:24.119Z,96.00
2019-05-17T11:16:50.406Z,96.90
2019-05-17T11:19:16.702Z,96.60
2019-05-17T11:21:42.862Z,96.50
2019-05-17T11:24:09.200Z,96.50
2019-05-17T11:26:35.366Z,95.60
2019-05-17T11:29:01.556Z,95.70
2019-05-17T11:31:27.998Z,96.10
2019-05-17T11:33:54.274Z,95.70
2019-05-17T11:36:20.551Z,96.00
2019-05-17T11:38:46.766Z,95.60
2019-05-17T11:41:20.939Z,95.80
2019-05-17T11:43:41.114Z,96.10
2019-05-17T11:46:07.414Z,95.20
2019-05-17T11:48:33.578Z,94.70
2019-05-17T11:50:59.791Z,94.70
2019-05-17T11:53:26.094Z,94.30
2019-05-17T11:55:52.432Z,93.90
2019-05-17T11:58:18.607Z,94.20
2019-05-17T12:00:45.006Z,95.50
2019-05-17T12:03:11.279Z,95.40
2019-05-17T12:05:37.625Z,95.50
2019-05-17T12:08:04.212Z,96.30
2019-05-17T12:10:30.412Z,95.80
2019-05-17T12:12:56.561Z,95.10
2019-05-17T12:15:22.818Z,95.80
2019-05-17T12:17:48.996Z,95.40
2019-05-17T12:20:15.304Z,94.90
2019-05-17T12:22:41.527Z,94.70
2019-05-17T12:25:07.863Z,94.60
2019-05-17T12:27:34.152Z,94.30
2019-05-17T12:30:00.565Z,94.10
2019-05-17T12:32:26.736Z,94.20
2019-05-17T12:34:53.010Z,93.90
2019-05-17T12:37:19.304Z,94.30
2019-05-17T12:39:45.484Z,94.70
2019-05-17T12:42:11.916Z,94.70
2019-05-17T12:44:38.091Z,94.80
2019-05-17T12:47:04.467Z,95.20
2019-05-17T12:49:30.756Z,94.90
2019-05-17T12:51:59.104Z,95.00
2019-05-17T12:54:25.582Z,95.10
2019-05-17T12:56:54.996Z,94.70
2019-05-17T12:59:27.563Z,94.50
2019-05-17T13:01:53.753Z,94.00
2019-05-17T13:04:19.940Z,94.00
2019-05-17T13:06:46.335Z,93.80
2019-05-17T13:09:12.965Z,94.20
2019-05-17T13:11:39.077Z,94.10
2019-05-17T13:14:05.262Z,93.40
2019-05-17T13:16:31.426Z,93.60
2019-05-17T13:18:57.603Z,93.30
2019-05-17T13:21:23.801Z,93.30
2019-05-17T13:23:49.982Z,93.60
2019-05-17T13:26:16.143Z,93.60
2019-05-17T13:28:42.595Z,94.00
2019-05-17T13:31:08.761Z,94.00
2019-05-17T13:33:34.939Z,93.70
2019-05-17T13:36:01.370Z,93.80
2019-05-17T13:38:27.643Z,94.00
2019-05-17T13:40:53.812Z,93.80
2019-05-17T13:43:21.618Z,94.00
2019-05-17T13:45:47.811Z,94.20
2019-05-17T13:48:13.972Z,93.90
2019-05-17T13:50:40.179Z,93.90
2019-05-17T13:53:06.474Z,93.80
2019-05-17T13:55:32.631Z,94.40
2019-05-17T13:57:58.835Z,95.10
2019-05-17T14:00:25.000Z,95.30
2019-05-17T14:02:51.211Z,96.20
2019-05-17T14:05:17.377Z,95.40
2019-05-17T14:07:43.546Z,95.50
2019-05-17T14:10:26.225Z,95.30
2019-05-17T14:12:38.249Z,95.80
2019-05-17T14:15:06.644Z,95.10
2019-05-17T14:17:32.811Z,95.60
2019-05-17T14:19:59.011Z,95.30
2019-05-17T14:22:25.287Z,95.20
2019-05-17T14:24:51.466Z,95.20
2019-05-17T14:27:17.738Z,94.80
2019-05-17T14:29:43.952Z,94.70
2019-05-17T14:32:10.471Z,94.90
2019-05-17T14:34:37.226Z,95.30
2019-05-17T14:37:07.366Z,95.50
2019-05-17T14:39:31.658Z,96.00
2019-05-17T14:41:57.864Z,96.00
2019-05-17T14:44:24.035Z,95.90
2019-05-17T14:46:50.210Z,96.60
2019-05-17T14:49:16.615Z,96.10
2019-05-17T14:51:42.853Z,96.30
2019-05-17T14:54:09.047Z,96.20
2019-05-17T14:56:35.242Z,96.20
2019-05-17T14:59:02.014Z,96.00
2019-05-17T15:01:28.189Z,95.50
2019-05-17T15:03:54.688Z,95.10
2019-05-17T15:06:20.882Z,96.10
2019-05-17T15:08:47.172Z,96.00
2019-05-17T15:11:13.886Z,96.30
2019-05-17T15:13:40.059Z,96.20
2019-05-17T15:16:06.238Z,96.40
2019-05-17T15:18:32.443Z,95.90
2019-05-17T15:20:58.620Z,96.50
2019-05-17T15:23:24.906Z,96.30
2019-05-17T15:25:51.099Z,96.00
2019-05-17T15:28:17.292Z,96.50
2019-05-17T15:30:43.462Z,96.60
2019-05-17T15:33:09.782Z,97.00
2019-05-17T15:35:35.946Z,96.80
2019-05-17T15:38:02.490Z,96.70
2019-05-17T15:40:28.747Z,96.90
2019-05-17T15:42:54.923Z,96.90
2019-05-17T15:45:21.102Z,96.80
2019-05-17T15:47:47.293Z,96.90
2019-05-17T15:50:13.573Z,98.40
2019-05-17T15:52:39.993Z,99.90
2019-05-17T15:55:06.253Z,99.90
2019-05-17T15:57:32.432Z,99.90
2019-05-17T15:59:58.610Z,99.90
2019-05-17T16:02:26.152Z,99.90
2019-05-17T16:04:52.363Z,99.90
2019-05-17T16:07:18.661Z,99.90
2019-05-17T16:09:44.842Z,99.90
2019-05-17T16:12:11.355Z,99.90
2019-05-17T16:14:37.535Z,99.90
2019-05-17T16:17:03.840Z,99.90
2019-05-17T16:19:30.018Z,99.90
2019-05-17T16:21:56.190Z,99.90
2019-05-17T16:24:22.398Z,99.90
2019-05-17T16:26:48.575Z,99.90
2019-05-17T16:29:14.960Z,99.90
2019-05-17T16:31:41.269Z,99.90
2019-05-17T16:34:07.431Z,99.90
2019-05-17T16:36:33.613Z,99.90
2019-05-17T16:38:59.863Z,99.90
2019-05-17T16:41:25.984Z,99.90
2019-05-17T16:43:52.652Z,99.90
2019-05-17T16:46:19.247Z,99.90
2019-05-17T16:48:45.461Z,99.90
2019-05-17T16:51:11.702Z,99.90
2019-05-17T16:53:37.897Z,99.90
2019-05-17T16:56:04.082Z,99.90
2019-05-17T16:58:30.363Z,99.90
2019-05-17T17:00:56.660Z,99.90
2019-05-17T17:03:22.790Z,99.90
2019-05-17T17:05:49.075Z,99.90
2019-05-17T17:08:15.274Z,99.90
2019-05-17T17:10:41.538Z,99.90
2019-05-17T17:13:09.000Z,99.90
2019-05-17T17:15:35.302Z,99.90
2019-05-17T17:18:01.466Z,99.90
2019-05-17T17:20:27.849Z,99.90
2019-05-17T17:22:54.054Z,99.90
2019-05-17T17:25:20.227Z,99.90
2019-05-17T17:27:46.404Z,99.90
2019-05-17T17:30:13.514Z,99.90
2019-05-17T17:32:39.690Z,99.90
2019-05-17T17:35:06.163Z,99.90
2019-05-17T17:37:32.363Z,99.90
2019-05-17T17:39:58.843Z,99.90
2019-05-17T17:42:25.018Z,99.90
2019-05-17T17:44:51.362Z,99.90
2019-05-17T17:47:17.491Z,99.90
2019-05-17T17:49:43.771Z,99.90
2019-05-17T17:52:09.967Z,99.90
2019-05-17T17:54:36.150Z,99.90
2019-05-17T17:57:02.332Z,99.90
2019-05-17T17:59:28.737Z,99.90
2019-05-17T18:01:54.915Z,99.90
2019-05-17T18:04:21.088Z,99.90
2019-05-17T18:06:47.289Z,99.90
2019-05-17T18:09:13.466Z,99.90
2019-05-17T18:11:39.643Z,99.90
2019-05-17T18:14:13.520Z,99.90
2019-05-17T18:16:34.890Z,99.90
2019-05-17T18:19:01.014Z,99.90
2019-05-17T18:21:27.275Z,99.90
2019-05-17T18:23:53.442Z,99.90
2019-05-17T18:26:19.618Z,99.90
2019-05-17T18:28:45.914Z,99.90
2019-05-17T18:31:12.097Z,99.90
2019-05-17T18:33:38.270Z,99.90
2019-05-17T18:36:04.470Z,99.90
2019-05-17T18:38:31.163Z,99.90
2019-05-17T18:40:57.342Z,99.90
2019-05-17T18:43:23.546Z,99.90
2019-05-17T18:45:49.722Z,99.90
2019-05-17T18:48:15.895Z,99.90
2019-05-17T18:50:42.095Z,99.90
2019-05-17T18:53:15.988Z,99.90
2019-05-17T18:55:36.318Z,99.90
2019-05-17T18:58:02.616Z,99.90
2019-05-17T19:00:28.782Z,99.90
2019-05-17T19:02:54.962Z,99.90
2019-05-17T19:05:21.391Z,99.90
2019-05-17T19:07:47.566Z,99.90
2019-05-17T19:10:14.043Z,99.90
2019-05-17T19:12:40.258Z,99.90
2019-05-17T19:15:06.938Z,99.90
2019-05-17T19:17:33.112Z,99.90
2019-05-17T19:19:59.933Z,99.90
2019-05-17T19:22:26.318Z,99.90
2019-05-17T19:24:52.592Z,99.90
2019-05-17T19:27:18.978Z,99.90
2019-05-17T19:29:45.152Z,99.90
2019-05-17T19:32:11.328Z,99.90
2019-05-17T19:34:37.534Z,99.90
2019-05-17T19:37:03.785Z,99.90
2019-05-17T19:39:29.990Z,99.90
2019-05-17T19:41:56.297Z,99.90
2019-05-17T19:44:22.571Z,99.90
2019-05-17T19:46:48.741Z,99.90
2019-05-17T19:49:15.134Z,99.90
2019-05-17T19:51:41.429Z,99.90
2019-05-17T19:54:07.607Z,99.90
2019-05-17T19:56:33.916Z,99.90
2019-05-17T19:59:00.083Z,99.90
2019-05-17T20:01:26.262Z,99.90
2019-05-17T20:03:52.682Z,99.90
2019-05-17T20:06:19.555Z,99.90
2019-05-17T20:08:45.773Z,99.90
2019-05-17T20:11:12.007Z,99.90
2019-05-17T20:13:38.306Z,99.90
2019-05-17T20:16:04.970Z,99.90
2019-05-17T20:18:31.312Z,99.90
2019-05-17T20:20:57.546Z,99.90
2019-05-17T20:23:23.733Z,99.90
2019-05-17T20:25:50.124Z,99.90
2019-05-17T20:28:16.302Z,99.90
2019-05-17T20:30:42.478Z,99.90
2019-05-17T20:33:08.676Z,99.90
2019-05-17T20:35:34.887Z,99.90
2019-05-17T20:38:01.139Z,99.90
2019-05-17T20:40:27.327Z,99.90
2019-05-17T20:42:53.507Z,99.90
2019-05-17T20:45:32.032Z,99.90
2019-05-17T20:47:47.691Z,99.90
2019-05-17T20:50:14.394Z,99.90
2019-05-17T20:52:40.680Z,99.90
2019-05-17T20:55:07.178Z,99.90
2019-05-17T20:57:33.505Z,99.90
2019-05-17T20:59:59.638Z,99.90
2019-05-17T21:02:25.939Z,99.90
2019-05-17T21:04:52.188Z,99.90
2019-05-17T21:07:18.389Z,99.90
2019-05-17T21:09:44.690Z,99.90
2019-05-17T21:12:10.874Z,99.90
2019-05-17T21:14:37.059Z,99.90
2019-05-17T21:17:04.972Z,99.90
2019-05-17T21:19:31.194Z,99.90
2019-05-17T21:21:57.319Z,99.90
2019-05-17T21:24:23.855Z,99.90
2019-05-17T21:26:50.119Z,99.90
2019-05-17T21:29:16.299Z,99.90
2019-05-17T21:31:42.502Z,99.90
2019-05-17T21:34:08.699Z,99.90
2019-05-17T21:36:34.866Z,99.90
2019-05-17T21:39:01.065Z,99.90
2019-05-17T21:41:27.405Z,99.90
2019-05-17T21:43:53.618Z,99.90
2019-05-17T21:46:20.018Z,99.90
2019-05-17T21:48:46.193Z,99.90
2019-05-17T21:51:12.475Z,99.90
2019-05-17T21:53:38.686Z,99.90
2019-05-17T21:56:04.863Z,99.90
2019-05-17T21:58:31.030Z,99.90
2019-05-17T22:00:59.154Z,99.90
2019-05-17T22:03:25.324Z,99.90
2019-05-17T22:05:51.696Z,99.90
2019-05-17T22:08:18.086Z,99.90
2019-05-17T22:10:44.459Z,99.90
2019-05-17T22:13:10.622Z,99.90
2019-05-17T22:15:36.827Z,99.90
2019-05-17T22:18:03.533Z,99.90
2019-05-17T22:20:29.734Z,99.90
2019-05-17T22:22:56.234Z,99.90
2019-05-17T22:25:22.410Z,99.90
2019-05-17T22:27:48.591Z,99.90
2019-05-17T22:30:14.798Z,99.90
2019-05-17T22:32:40.972Z,99.90
2019-05-17T22:35:07.454Z,99.90
2019-05-17T22:37:33.682Z,99.90
2019-05-17T22:39:59.861Z,99.90
2019-05-17T22:42:26.040Z,99.90
2019-05-17T22:44:52.278Z,99.90
2019-05-17T22:47:18.677Z,99.90
2019-05-17T22:49:44.863Z,99.90
2019-05-17T22:52:11.054Z,99.90
2019-05-17T22:54:37.334Z,99.90
2019-05-17T22:57:03.519Z,99.90
2019-05-17T22:59:29.717Z,99.90
2019-05-17T23:01:57.337Z,99.90
2019-05-17T23:04:23.469Z,99.90
2019-05-17T23:06:50.036Z,99.90
2019-05-17T23:09:16.223Z,99.90
2019-05-17T23:11:42.407Z,99.90
2019-05-17T23:14:08.606Z,99.90
2019-05-17T23:16:34.786Z,99.90
2019-05-17T23:19:04.230Z,99.90
2019-05-17T23:21:30.531Z,99.90
2019-05-17T23:23:56.745Z,99.90
2019-05-17T23:26:22.887Z,99.90
2019-05-17T23:28:49.090Z,99.90
2019-05-17T23:31:15.363Z,99.90
2019-05-17T23:33:41.550Z,99.90
2019-05-17T23:36:07.756Z,99.90
2019-05-17T23:38:34.135Z,99.90
2019-05-17T23:41:00.311Z,99.90
2019-05-17T23:43:27.042Z,99.90
2019-05-17T23:45:53.224Z,99.90
2019-05-17T23:48:19.518Z,99.90
2019-05-17T23:50:45.708Z,99.90
2019-05-17T23:53:11.883Z,99.90
2019-05-17T23:55:38.162Z,99.90
2019-05-17T23:58:04.655Z,99.90
